sensor_id;sensor_type;location;lat;lon;timestamp;P1;durP1;ratioP1;P2;durP2;ratioP2
59986;SDS011;46181;51.498;5.392;2023-03-05T00:02:28;6.672;;;1.812;;
59986;SDS011;46181;51.498;5.392;2023-03-05T00:06:58;6.268001;;;1.656;;
59986;SDS011;46181;51.498;5.392;2023-03-05T00:11:28;7.696001;;;1.6;;
59986;SDS011;46181;51.498;5.392;2023-03-05T00:16:00;9.94;;;2;;
59986;SDS011;46181;51.498;5.392;2023-03-05T00:20:28;6.124;;;2.032;;
59986;SDS011;46181;51.498;5.392;2023-03-05T00:24:58;10.044;;;1.72;;
59986;SDS011;46181;51.498;5.392;2023-03-05T00:29:29;7.544001;;;1.712;;
59986;SDS011;46181;51.498;5.392;2023-03-05T00:33:59;7.544;;;1.64;;
59986;SDS011;46181;51.498;5.392;2023-03-05T00:38:28;7.632;;;1.556;;
59986;SDS011;46181;51.498;5.392;2023-03-05T00:42:58;8.832;;;1.832;;
59986;SDS011;46181;51.498;5.392;2023-03-05T00:47:28;6.696001;;;1.76;;
59986;SDS011;46181;51.498;5.392;2023-03-05T00:51:58;8.035999;;;1.88;;
59986;SDS011;46181;51.498;5.392;2023-03-05T00:56:28;7.508;;;1.584;;
59986;SDS011;46181;51.498;5.392;2023-03-05T01:01:00;6.104001;;;1.704;;
59986;SDS011;46181;51.498;5.392;2023-03-05T01:05:28;6.6;;;1.432;;
59986;SDS011;46181;51.498;5.392;2023-03-05T01:09:58;6.492;;;1.772;;
59986;SDS011;46181;51.498;5.392;2023-03-05T01:14:28;5.952;;;1.644;;
59986;SDS011;46181;51.498;5.392;2023-03-05T01:18:58;14.048;;;2.236;;
59986;SDS011;46181;51.498;5.392;2023-03-05T01:23:28;6.192;;;1.564;;
59986;SDS011;46181;51.498;5.392;2023-03-05T01:27:58;7.940001;;;1.588;;
59986;SDS011;46181;51.498;5.392;2023-03-05T01:32:28;7.727999;;;1.776;;
59986;SDS011;46181;51.498;5.392;2023-03-05T01:36:58;10.484;;;1.996;;
59986;SDS011;46181;51.498;5.392;2023-03-05T01:41:28;8.372;;;1.84;;
59986;SDS011;46181;51.498;5.392;2023-03-05T01:50:29;5.048;;;1.312;;
59986;SDS011;46181;51.498;5.392;2023-03-05T01:54:59;9.232;;;1.556;;
59986;SDS011;46181;51.498;5.392;2023-03-05T01:59:28;5.776001;;;1.64;;
59986;SDS011;46181;51.498;5.392;2023-03-05T02:03:58;5.924;;;1.228;;
59986;SDS011;46181;51.498;5.392;2023-03-05T02:08:28;6.128;;;1.572;;
59986;SDS011;46181;51.498;5.392;2023-03-05T02:13:00;9.668;;;1.652;;
59986;SDS011;46181;51.498;5.392;2023-03-05T02:17:29;8.152;;;1.564;;
59986;SDS011;46181;51.498;5.392;2023-03-05T02:21:58;4.636;;;1.128;;
59986;SDS011;46181;51.498;5.392;2023-03-05T02:26:28;7.088;;;1.304;;
59986;SDS011;46181;51.498;5.392;2023-03-05T02:30:59;6.955999;;;1.356;;
59986;SDS011;46181;51.498;5.392;2023-03-05T02:35:28;5.328;;;1.728;;
59986;SDS011;46181;51.498;5.392;2023-03-05T02:39:58;5.340001;;;1.36;;
59986;SDS011;46181;51.498;5.392;2023-03-05T02:44:29;7.144;;;1.496;;
59986;SDS011;46181;51.498;5.392;2023-03-05T02:48:58;4.667999;;;1.472;;
59986;SDS011;46181;51.498;5.392;2023-03-05T02:53:28;7.571999;;;1.748;;
59986;SDS011;46181;51.498;5.392;2023-03-05T02:57:59;4.088;;;1.172;;
59986;SDS011;46181;51.498;5.392;2023-03-05T03:02:28;6.392;;;1.452;;
59986;SDS011;46181;51.498;5.392;2023-03-05T03:06:58;5.548;;;1.78;;
59986;SDS011;46181;51.498;5.392;2023-03-05T03:11:28;4.972;;;1.584;;
59986;SDS011;46181;51.498;5.392;2023-03-05T03:16:04;6.312;;;1.764;;
59986;SDS011;46181;51.498;5.392;2023-03-05T03:20:28;4.424;;;1.476;;
59986;SDS011;46181;51.498;5.392;2023-03-05T03:24:58;5.367999;;;1.38;;
59986;SDS011;46181;51.498;5.392;2023-03-05T03:29:29;7.380001;;;2.323999;;
59986;SDS011;46181;51.498;5.392;2023-03-05T03:33:58;7.827999;;;1.92;;
59986;SDS011;46181;51.498;5.392;2023-03-05T03:38:29;7.912;;;1.944;;
59986;SDS011;46181;51.498;5.392;2023-03-05T03:42:58;5.688;;;1.732001;;
59986;SDS011;46181;51.498;5.392;2023-03-05T03:47:29;6.871999;;;1.948;;
59986;SDS011;46181;51.498;5.392;2023-03-05T03:51:58;6.900001;;;1.884;;
59986;SDS011;46181;51.498;5.392;2023-03-05T03:56:28;8.576;;;1.92;;
59986;SDS011;46181;51.498;5.392;2023-03-05T04:00:58;7.199999;;;2.516;;
59986;SDS011;46181;51.498;5.392;2023-03-05T04:05:29;9.676001;;;2.184;;
59986;SDS011;46181;51.498;5.392;2023-03-05T04:09:58;9.756;;;2.512;;
59986;SDS011;46181;51.498;5.392;2023-03-05T04:14:28;8.403999;;;2.488;;
59986;SDS011;46181;51.498;5.392;2023-03-05T04:18:58;8.707998;;;2.208;;
59986;SDS011;46181;51.498;5.392;2023-03-05T04:23:29;6.436;;;2.652;;
59986;SDS011;46181;51.498;5.392;2023-03-05T04:27:58;8.404;;;2.62;;
59986;SDS011;46181;51.498;5.392;2023-03-05T04:32:28;6.031999;;;2.116;;
59986;SDS011;46181;51.498;5.392;2023-03-05T04:36:59;7.292001;;;3.244;;
59986;SDS011;46181;51.498;5.392;2023-03-05T04:41:29;7.179999;;;2.932;;
59986;SDS011;46181;51.498;5.392;2023-03-05T04:45:59;7.260001;;;3.136;;
59986;SDS011;46181;51.498;5.392;2023-03-05T04:50:28;10.1;;;3.220001;;
59986;SDS011;46181;51.498;5.392;2023-03-05T04:54:58;8.303999;;;3.551999;;
59986;SDS011;46181;51.498;5.392;2023-03-05T04:59:29;8.104;;;3.788;;
59986;SDS011;46181;51.498;5.392;2023-03-05T05:03:58;11.62;;;3.895999;;
59986;SDS011;46181;51.498;5.392;2023-03-05T05:08:29;8.703999;;;3.812001;;
59986;SDS011;46181;51.498;5.392;2023-03-05T05:12:58;7.816;;;3.688;;
59986;SDS011;46181;51.498;5.392;2023-03-05T05:17:29;7.975998;;;3.944;;
59986;SDS011;46181;51.498;5.392;2023-03-05T05:21:59;11.552;;;4.115999;;
59986;SDS011;46181;51.498;5.392;2023-03-05T05:26:29;9.023999;;;4.08;;
59986;SDS011;46181;51.498;5.392;2023-03-05T05:30:59;7.936;;;3.82;;
59986;SDS011;46181;51.498;5.392;2023-03-05T05:35:29;11.932;;;3.888;;
59986;SDS011;46181;51.498;5.392;2023-03-05T05:39:59;8.132001;;;3.888;;
59986;SDS011;46181;51.498;5.392;2023-03-05T05:44:29;11.368;;;3.984;;
59986;SDS011;46181;51.498;5.392;2023-03-05T05:48:59;9.483999;;;4.015999;;
59986;SDS011;46181;51.498;5.392;2023-03-05T05:53:29;8.192;;;4.124;;
59986;SDS011;46181;51.498;5.392;2023-03-05T05:57:59;10.96;;;4.312001;;
59986;SDS011;46181;51.498;5.392;2023-03-05T06:02:29;6.467999;;;3.836;;
59986;SDS011;46181;51.498;5.392;2023-03-05T06:06:59;9.192;;;3.968;;
59986;SDS011;46181;51.498;5.392;2023-03-05T06:11:29;11.048;;;4.547999;;
59986;SDS011;46181;51.498;5.392;2023-03-05T06:16:00;10.088;;;4.408001;;
59986;SDS011;46181;51.498;5.392;2023-03-05T06:20:29;11.744;;;4.280001;;
59986;SDS011;46181;51.498;5.392;2023-03-05T06:24:59;9.8;;;4.328;;
59986;SDS011;46181;51.498;5.392;2023-03-05T06:29:29;8.552;;;4.023999;;
59986;SDS011;46181;51.498;5.392;2023-03-05T06:33:59;10.048;;;4.608;;
59986;SDS011;46181;51.498;5.392;2023-03-05T06:38:29;9.971999;;;4.324;;
59986;SDS011;46181;51.498;5.392;2023-03-05T06:42:59;9.343999;;;3.948;;
59986;SDS011;46181;51.498;5.392;2023-03-05T06:47:29;8.504001;;;4.348;;
59986;SDS011;46181;51.498;5.392;2023-03-05T06:51:59;9.568001;;;4.188;;
59986;SDS011;46181;51.498;5.392;2023-03-05T06:56:29;8.171998;;;3.548;;
59986;SDS011;46181;51.498;5.392;2023-03-05T07:00:59;9.591999;;;3.444;;
59986;SDS011;46181;51.498;5.392;2023-03-05T07:05:29;9.916001;;;3.400001;;
59986;SDS011;46181;51.498;5.392;2023-03-05T07:09:59;10.168;;;3.328;;
59986;SDS011;46181;51.498;5.392;2023-03-05T07:14:29;6.416001;;;3.099999;;
59986;SDS011;46181;51.498;5.392;2023-03-05T07:18:59;6.696001;;;3.456;;
59986;SDS011;46181;51.498;5.392;2023-03-05T07:23:29;8.696;;;3.084;;
59986;SDS011;46181;51.498;5.392;2023-03-05T07:27:59;5.528;;;2.756;;
59986;SDS011;46181;51.498;5.392;2023-03-05T07:32:29;6.492;;;2.848001;;
59986;SDS011;46181;51.498;5.392;2023-03-05T07:36:59;7.672001;;;2.967999;;
59986;SDS011;46181;51.498;5.392;2023-03-05T07:41:29;6.855999;;;2.964;;
59986;SDS011;46181;51.498;5.392;2023-03-05T07:45:59;8.363999;;;2.804;;
59986;SDS011;46181;51.498;5.392;2023-03-05T07:50:29;4.836001;;;2.412;;
59986;SDS011;46181;51.498;5.392;2023-03-05T07:54:59;8.243999;;;2.4;;
59986;SDS011;46181;51.498;5.392;2023-03-05T07:59:29;6.252001;;;2.752;;
59986;SDS011;46181;51.498;5.392;2023-03-05T08:03:59;3.923999;;;2.012;;
59986;SDS011;46181;51.498;5.392;2023-03-05T08:08:29;4.828;;;2.12;;
59986;SDS011;46181;51.498;5.392;2023-03-05T08:12:59;4.447999;;;1.68;;
59986;SDS011;46181;51.498;5.392;2023-03-05T08:17:29;3.912;;;1.748001;;
59986;SDS011;46181;51.498;5.392;2023-03-05T08:21:59;4.807999;;;1.964;;
59986;SDS011;46181;51.498;5.392;2023-03-05T08:26:29;5.296;;;2.036;;
59986;SDS011;46181;51.498;5.392;2023-03-05T08:30:59;4.604;;;2.036;;
59986;SDS011;46181;51.498;5.392;2023-03-05T08:35:29;5.06;;;1.536;;
59986;SDS011;46181;51.498;5.392;2023-03-05T08:39:59;4.943999;;;1.972;;
59986;SDS011;46181;51.498;5.392;2023-03-05T08:44:29;4.799999;;;1.644;;
59986;SDS011;46181;51.498;5.392;2023-03-05T08:48:59;5.811999;;;2.004;;
59986;SDS011;46181;51.498;5.392;2023-03-05T08:53:29;2.712;;;1.592;;
59986;SDS011;46181;51.498;5.392;2023-03-05T08:57:59;3.316001;;;1.648;;
59986;SDS011;46181;51.498;5.392;2023-03-05T09:02:29;4.16;;;1.552;;
59986;SDS011;46181;51.498;5.392;2023-03-05T09:06:59;4.796;;;1.596;;
59986;SDS011;46181;51.498;5.392;2023-03-05T09:11:29;2.496;;;1.128;;
59986;SDS011;46181;51.498;5.392;2023-03-05T09:15:59;2.996;;;1.016;;
59986;SDS011;46181;51.498;5.392;2023-03-05T09:20:29;4.764;;;1.476;;
59986;SDS011;46181;51.498;5.392;2023-03-05T09:24:59;3.164001;;;1.108;;
59986;SDS011;46181;51.498;5.392;2023-03-05T09:29:29;3.48;;;1.292;;
59986;SDS011;46181;51.498;5.392;2023-03-05T09:33:59;4.68;;;1.488;;
59986;SDS011;46181;51.498;5.392;2023-03-05T09:38:29;3.576;;;1.616;;
59986;SDS011;46181;51.498;5.392;2023-03-05T09:43:07;5.392;;;1.864;;
59986;SDS011;46181;51.498;5.392;2023-03-05T09:47:31;3.711999;;;1.792;;
59986;SDS011;46181;51.498;5.392;2023-03-05T09:52:00;3.08;;;1.676;;
59986;SDS011;46181;51.498;5.392;2023-03-05T09:56:30;3.996;;;2.032;;
59986;SDS011;46181;51.498;5.392;2023-03-05T10:00:59;4.868;;;2.336;;
59986;SDS011;46181;51.498;5.392;2023-03-05T10:05:30;5.627999;;;3.547999;;
59986;SDS011;46181;51.498;5.392;2023-03-05T10:10:00;4.488;;;2.024;;
59986;SDS011;46181;51.498;5.392;2023-03-05T10:14:30;3.284;;;1.456;;
59986;SDS011;46181;51.498;5.392;2023-03-05T10:19:00;3.38;;;1.716;;
59986;SDS011;46181;51.498;5.392;2023-03-05T10:23:33;4.744;;;1.492;;
59986;SDS011;46181;51.498;5.392;2023-03-05T10:28:00;3.628;;;1.716;;
59986;SDS011;46181;51.498;5.392;2023-03-05T10:32:32;4.688001;;;1.716;;
59986;SDS011;46181;51.498;5.392;2023-03-05T10:37:03;3.256;;;1.528;;
59986;SDS011;46181;51.498;5.392;2023-03-05T10:41:31;6.72;;;1.9;;
59986;SDS011;46181;51.498;5.392;2023-03-05T10:45:59;4.164;;;1.804;;
59986;SDS011;46181;51.498;5.392;2023-03-05T10:50:30;3.196;;;1.244;;
59986;SDS011;46181;51.498;5.392;2023-03-05T10:54:59;2.992;;;0.908;;
59986;SDS011;46181;51.498;5.392;2023-03-05T10:59:29;2.328;;;0.992;;
59986;SDS011;46181;51.498;5.392;2023-03-05T11:03:59;3.768;;;0.82;;
59986;SDS011;46181;51.498;5.392;2023-03-05T11:08:33;4.484;;;1.368;;
59986;SDS011;46181;51.498;5.392;2023-03-05T11:12:59;2.2;;;1.004;;
59986;SDS011;46181;51.498;5.392;2023-03-05T11:17:31;2.112;;;1.028;;
59986;SDS011;46181;51.498;5.392;2023-03-05T11:22:12;3.128;;;0.908;;
59986;SDS011;46181;51.498;5.392;2023-03-05T11:26:29;2.36;;;1.096;;
59986;SDS011;46181;51.498;5.392;2023-03-05T11:31:00;2.964;;;1.2;;
59986;SDS011;46181;51.498;5.392;2023-03-05T11:35:32;4.1;;;1.108;;
59986;SDS011;46181;51.498;5.392;2023-03-05T11:40:18;2.604;;;1.132;;
59986;SDS011;46181;51.498;5.392;2023-03-05T11:44:31;2.84;;;0.94;;
59986;SDS011;46181;51.498;5.392;2023-03-05T11:48:59;4.372;;;1.228;;
59986;SDS011;46181;51.498;5.392;2023-03-05T11:53:30;1.68;;;0.868;;
59986;SDS011;46181;51.498;5.392;2023-03-05T11:58:00;2.456;;;1.14;;
59986;SDS011;46181;51.498;5.392;2023-03-05T12:02:29;3.628;;;1.04;;
59986;SDS011;46181;51.498;5.392;2023-03-05T12:06:59;3.416;;;0.996;;
59986;SDS011;46181;51.498;5.392;2023-03-05T12:11:29;5.075999;;;1.212;;
59986;SDS011;46181;51.498;5.392;2023-03-05T12:16:03;4.552;;;1.228;;
59986;SDS011;46181;51.498;5.392;2023-03-05T12:20:32;3.34;;;1.16;;
59986;SDS011;46181;51.498;5.392;2023-03-05T12:24:59;2.2;;;1;;
59986;SDS011;46181;51.498;5.392;2023-03-05T12:29:30;3.348;;;1.112;;
59986;SDS011;46181;51.498;5.392;2023-03-05T12:33:59;2.204;;;1.024;;
59986;SDS011;46181;51.498;5.392;2023-03-05T12:38:32;2.5;;;0.892;;
59986;SDS011;46181;51.498;5.392;2023-03-05T12:42:59;1.492;;;0.796;;
59986;SDS011;46181;51.498;5.392;2023-03-05T12:47:29;2.736;;;1.048;;
59986;SDS011;46181;51.498;5.392;2023-03-05T12:51:59;3.644001;;;1.232;;
59986;SDS011;46181;51.498;5.392;2023-03-05T12:56:29;4.440001;;;1.232;;
59986;SDS011;46181;51.498;5.392;2023-03-05T13:01:00;2.508;;;1.176;;
59986;SDS011;46181;51.498;5.392;2023-03-05T13:05:30;2.692;;;1.148;;
59986;SDS011;46181;51.498;5.392;2023-03-05T13:09:59;2.676;;;1.096;;
59986;SDS011;46181;51.498;5.392;2023-03-05T13:14:31;2.972;;;1.156;;
59986;SDS011;46181;51.498;5.392;2023-03-05T13:19:00;2.8;;;1.128;;
59986;SDS011;46181;51.498;5.392;2023-03-05T13:23:29;4.844;;;1.316;;
59986;SDS011;46181;51.498;5.392;2023-03-05T13:28:05;2.736;;;0.9;;
59986;SDS011;46181;51.498;5.392;2023-03-05T13:32:29;2.748;;;1;;
59986;SDS011;46181;51.498;5.392;2023-03-05T13:37:00;2.904;;;1.248;;
59986;SDS011;46181;51.498;5.392;2023-03-05T13:41:29;5.231999;;;1.156;;
59986;SDS011;46181;51.498;5.392;2023-03-05T13:45:59;1.964;;;0.964;;
59986;SDS011;46181;51.498;5.392;2023-03-05T13:50:30;2.34;;;0.864;;
59986;SDS011;46181;51.498;5.392;2023-03-05T13:54:59;1.988001;;;0.712;;
59986;SDS011;46181;51.498;5.392;2023-03-05T13:59:29;4.256;;;0.84;;
59986;SDS011;46181;51.498;5.392;2023-03-05T14:04:02;3.195999;;;0.924;;
59986;SDS011;46181;51.498;5.392;2023-03-05T14:08:29;7.6;;;2.699999;;
59986;SDS011;46181;51.498;5.392;2023-03-05T14:12:59;3.540001;;;0.904;;
59986;SDS011;46181;51.498;5.392;2023-03-05T14:17:41;2.2;;;1;;
59986;SDS011;46181;51.498;5.392;2023-03-05T14:21:59;2.808;;;0.9;;
59986;SDS011;46181;51.498;5.392;2023-03-05T14:26:30;2.8;;;0.932;;
59986;SDS011;46181;51.498;5.392;2023-03-05T14:30:59;3.872;;;0.74;;
59986;SDS011;46181;51.498;5.392;2023-03-05T14:35:29;1.884;;;0.688;;
59986;SDS011;46181;51.498;5.392;2023-03-05T14:39:59;1.4;;;0.72;;
59986;SDS011;46181;51.498;5.392;2023-03-05T14:44:29;2.068;;;0.88;;
59986;SDS011;46181;51.498;5.392;2023-03-05T14:48:59;3.58;;;1.092;;
59986;SDS011;46181;51.498;5.392;2023-03-05T14:53:31;2.596;;;0.86;;
59986;SDS011;46181;51.498;5.392;2023-03-05T14:58:00;2.076;;;0.908;;
59986;SDS011;46181;51.498;5.392;2023-03-05T15:02:29;3.324;;;1.224;;
59986;SDS011;46181;51.498;5.392;2023-03-05T15:06:59;2.984001;;;1.18;;
59986;SDS011;46181;51.498;5.392;2023-03-05T15:11:29;3.776;;;1.312;;
59986;SDS011;46181;51.498;5.392;2023-03-05T15:16:00;3.084001;;;1.424;;
59986;SDS011;46181;51.498;5.392;2023-03-05T15:20:29;3.812;;;1.612;;
59986;SDS011;46181;51.498;5.392;2023-03-05T15:24:59;4.248;;;1.5;;
59986;SDS011;46181;51.498;5.392;2023-03-05T15:29:29;4.992;;;1.504;;
59986;SDS011;46181;51.498;5.392;2023-03-05T15:33:59;4.984001;;;1.728001;;
59986;SDS011;46181;51.498;5.392;2023-03-05T15:38:29;3.048;;;1.424;;
59986;SDS011;46181;51.498;5.392;2023-03-05T15:42:59;4.807999;;;1.692;;
59986;SDS011;46181;51.498;5.392;2023-03-05T15:47:29;4.188;;;1.74;;
59986;SDS011;46181;51.498;5.392;2023-03-05T15:51:59;5.052;;;1.944;;
59986;SDS011;46181;51.498;5.392;2023-03-05T15:56:29;4.428;;;1.964;;
59986;SDS011;46181;51.498;5.392;2023-03-05T16:00:59;4.22;;;2.299999;;
59986;SDS011;46181;51.498;5.392;2023-03-05T16:05:29;3.688;;;1.956;;
59986;SDS011;46181;51.498;5.392;2023-03-05T16:09:59;3.228;;;1.928;;
59986;SDS011;46181;51.498;5.392;2023-03-05T16:14:29;2.864;;;2.2;;
59986;SDS011;46181;51.498;5.392;2023-03-05T16:18:59;5.256;;;2.532;;
59986;SDS011;46181;51.498;5.392;2023-03-05T16:23:29;6.784;;;2.896;;
59986;SDS011;46181;51.498;5.392;2023-03-05T16:27:59;4.768;;;2.812;;
59986;SDS011;46181;51.498;5.392;2023-03-05T16:32:29;6.107999;;;3.076;;
59986;SDS011;46181;51.498;5.392;2023-03-05T16:36:59;5.607999;;;3.024;;
59986;SDS011;46181;51.498;5.392;2023-03-05T16:41:29;6.315999;;;2.967999;;
59986;SDS011;46181;51.498;5.392;2023-03-05T16:45:59;5.044001;;;3.372;;
59986;SDS011;46181;51.498;5.392;2023-03-05T16:50:29;6.144;;;3.644;;
59986;SDS011;46181;51.498;5.392;2023-03-05T16:54:59;6.167999;;;2.532;;
59986;SDS011;46181;51.498;5.392;2023-03-05T16:59:29;3.576;;;1.976;;
59986;SDS011;46181;51.498;5.392;2023-03-05T17:03:59;3.668;;;2.004;;
59986;SDS011;46181;51.498;5.392;2023-03-05T17:08:29;4.059999;;;1.696;;
59986;SDS011;46181;51.498;5.392;2023-03-05T17:12:59;2.824;;;1.628;;
59986;SDS011;46181;51.498;5.392;2023-03-05T17:17:29;0.1;;;0.1;;
59986;SDS011;46181;51.498;5.392;2023-03-05T17:21:59;0.1;;;0.1;;
59986;SDS011;46181;51.498;5.392;2023-03-05T17:26:29;0.1;;;0.1;;
59986;SDS011;46181;51.498;5.392;2023-03-05T17:30:59;0.124;;;0.124;;
59986;SDS011;46181;51.498;5.392;2023-03-05T17:35:29;0.1;;;0.1;;
59986;SDS011;46181;51.498;5.392;2023-03-05T17:39:59;0.1;;;0.1;;
59986;SDS011;46181;51.498;5.392;2023-03-05T17:44:29;0.16;;;0.16;;
59986;SDS011;46181;51.498;5.392;2023-03-05T17:48:59;0.1;;;0.1;;
59986;SDS011;46181;51.498;5.392;2023-03-05T17:53:29;0.1;;;0.1;;
59986;SDS011;46181;51.498;5.392;2023-03-05T17:57:59;0.1;;;0.1;;
59986;SDS011;46181;51.498;5.392;2023-03-05T18:02:29;0.164;;;0.164;;
59986;SDS011;46181;51.498;5.392;2023-03-05T18:06:59;0.2;;;0.2;;
59986;SDS011;46181;51.498;5.392;2023-03-05T18:11:29;0.132;;;0.132;;
59986;SDS011;46181;51.498;5.392;2023-03-05T18:16:00;0.1;;;0.1;;
59986;SDS011;46181;51.498;5.392;2023-03-05T18:20:30;0.1;;;0.1;;
59986;SDS011;46181;51.498;5.392;2023-03-05T18:24:59;0.1;;;0.1;;
59986;SDS011;46181;51.498;5.392;2023-03-05T18:29:29;0.2;;;0.2;;
59986;SDS011;46181;51.498;5.392;2023-03-05T18:33:59;0.1;;;0.1;;
59986;SDS011;46181;51.498;5.392;2023-03-05T18:38:29;0.1;;;0.1;;
59986;SDS011;46181;51.498;5.392;2023-03-05T18:42:59;0.1;;;0.1;;
59986;SDS011;46181;51.498;5.392;2023-03-05T18:47:29;0.2;;;0.2;;
59986;SDS011;46181;51.498;5.392;2023-03-05T18:51:59;0.148;;;0.148;;
59986;SDS011;46181;51.498;5.392;2023-03-05T18:56:29;0.1;;;0.1;;
59986;SDS011;46181;51.498;5.392;2023-03-05T19:00:59;0.164;;;0.164;;
59986;SDS011;46181;51.498;5.392;2023-03-05T19:05:29;0.404;;;0.252;;
59986;SDS011;46181;51.498;5.392;2023-03-05T19:09:59;0.1;;;0.1;;
59986;SDS011;46181;51.498;5.392;2023-03-05T19:14:29;0.184;;;0.184;;
59986;SDS011;46181;51.498;5.392;2023-03-05T19:18:59;0.16;;;0.16;;
59986;SDS011;46181;51.498;5.392;2023-03-05T19:23:29;0.1;;;0.1;;
59986;SDS011;46181;51.498;5.392;2023-03-05T19:27:59;0.16;;;0.16;;
59986;SDS011;46181;51.498;5.392;2023-03-05T19:32:29;0.2;;;0.2;;
59986;SDS011;46181;51.498;5.392;2023-03-05T19:36:59;0.136;;;0.136;;
59986;SDS011;46181;51.498;5.392;2023-03-05T19:41:29;0.1;;;0.1;;
59986;SDS011;46181;51.498;5.392;2023-03-05T19:46:03;0.1;;;0.1;;
59986;SDS011;46181;51.498;5.392;2023-03-05T19:50:29;0.184;;;0.184;;
59986;SDS011;46181;51.498;5.392;2023-03-05T19:54:59;0.1;;;0.1;;
59986;SDS011;46181;51.498;5.392;2023-03-05T19:59:29;0.1;;;0.1;;
59986;SDS011;46181;51.498;5.392;2023-03-05T20:03:59;0.156;;;0.156;;
59986;SDS011;46181;51.498;5.392;2023-03-05T20:08:29;0.228;;;0.228;;
59986;SDS011;46181;51.498;5.392;2023-03-05T20:13:00;0.1;;;0.1;;
59986;SDS011;46181;51.498;5.392;2023-03-05T20:17:29;0.1;;;0.1;;
59986;SDS011;46181;51.498;5.392;2023-03-05T20:21:59;0.2;;;0.2;;
59986;SDS011;46181;51.498;5.392;2023-03-05T20:26:29;0.1;;;0.1;;
59986;SDS011;46181;51.498;5.392;2023-03-05T20:31:00;0.116;;;0.116;;
59986;SDS011;46181;51.498;5.392;2023-03-05T20:35:29;0.1;;;0.1;;
59986;SDS011;46181;51.498;5.392;2023-03-05T20:39:59;0.132;;;0.132;;
59986;SDS011;46181;51.498;5.392;2023-03-05T20:44:29;0.16;;;0.16;;
59986;SDS011;46181;51.498;5.392;2023-03-05T20:49:00;0.1;;;0.1;;
59986;SDS011;46181;51.498;5.392;2023-03-05T20:53:29;0.1;;;0.1;;
59986;SDS011;46181;51.498;5.392;2023-03-05T20:57:59;0.1;;;0.1;;
59986;SDS011;46181;51.498;5.392;2023-03-05T21:02:29;0.2;;;0.2;;
59986;SDS011;46181;51.498;5.392;2023-03-05T21:06:59;0.1;;;0.1;;
59986;SDS011;46181;51.498;5.392;2023-03-05T21:11:29;0.1;;;0.1;;
59986;SDS011;46181;51.498;5.392;2023-03-05T21:15:59;0.1;;;0.1;;
59986;SDS011;46181;51.498;5.392;2023-03-05T21:20:29;0.188;;;0.188;;
59986;SDS011;46181;51.498;5.392;2023-03-05T21:24:59;0.144;;;0.144;;
59986;SDS011;46181;51.498;5.392;2023-03-05T21:29:29;0.2;;;0.2;;
59986;SDS011;46181;51.498;5.392;2023-03-05T21:33:59;0.1;;;0.1;;
59986;SDS011;46181;51.498;5.392;2023-03-05T21:38:29;0.184;;;0.184;;
59986;SDS011;46181;51.498;5.392;2023-03-05T21:42:59;0.2;;;0.2;;
59986;SDS011;46181;51.498;5.392;2023-03-05T21:47:29;0.2;;;0.2;;
59986;SDS011;46181;51.498;5.392;2023-03-05T21:51:59;0.1;;;0.1;;
59986;SDS011;46181;51.498;5.392;2023-03-05T21:56:29;0.1;;;0.1;;
59986;SDS011;46181;51.498;5.392;2023-03-05T22:00:59;0.1;;;0.1;;
59986;SDS011;46181;51.498;5.392;2023-03-05T22:05:29;0.1;;;0.1;;
59986;SDS011;46181;51.498;5.392;2023-03-05T22:09:59;0.1;;;0.1;;
59986;SDS011;46181;51.498;5.392;2023-03-05T22:14:29;0.2;;;0.2;;
59986;SDS011;46181;51.498;5.392;2023-03-05T22:18:59;0.1;;;0.1;;
59986;SDS011;46181;51.498;5.392;2023-03-05T22:23:30;0.1;;;0.1;;
59986;SDS011;46181;51.498;5.392;2023-03-05T22:27:59;0.1;;;0.1;;
59986;SDS011;46181;51.498;5.392;2023-03-05T22:32:31;0.1;;;0.1;;
59986;SDS011;46181;51.498;5.392;2023-03-05T22:36:59;0.2;;;0.2;;
59986;SDS011;46181;51.498;5.392;2023-03-05T22:41:29;0.124;;;0.124;;
59986;SDS011;46181;51.498;5.392;2023-03-05T22:45:59;0.1;;;0.1;;
59986;SDS011;46181;51.498;5.392;2023-03-05T22:50:29;0.1;;;0.1;;
59986;SDS011;46181;51.498;5.392;2023-03-05T22:54:59;0.32;;;0.32;;
59986;SDS011;46181;51.498;5.392;2023-03-05T22:59:30;0.1;;;0.1;;
59986;SDS011;46181;51.498;5.392;2023-03-05T23:03:59;0.232;;;0.232;;
59986;SDS011;46181;51.498;5.392;2023-03-05T23:08:29;0.1;;;0.1;;
59986;SDS011;46181;51.498;5.392;2023-03-05T23:12:59;0.116;;;0.116;;
59986;SDS011;46181;51.498;5.392;2023-03-05T23:17:29;0.1;;;0.1;;
59986;SDS011;46181;51.498;5.392;2023-03-05T23:21:59;0.184;;;0.184;;
59986;SDS011;46181;51.498;5.392;2023-03-05T23:26:29;0.94;;;0.94;;
59986;SDS011;46181;51.498;5.392;2023-03-05T23:30:59;0.2;;;0.2;;
59986;SDS011;46181;51.498;5.392;2023-03-05T23:35:30;0.1;;;0.1;;
59986;SDS011;46181;51.498;5.392;2023-03-05T23:39:59;0.1;;;0.1;;
59986;SDS011;46181;51.498;5.392;2023-03-05T23:44:29;0.1;;;0.1;;
59986;SDS011;46181;51.498;5.392;2023-03-05T23:48:59;0.116;;;0.116;;
59986;SDS011;46181;51.498;5.392;2023-03-05T23:53:29;0.172;;;0.172;;
59986;SDS011;46181;51.498;5.392;2023-03-05T23:57:59;0.124;;;0.124;;
